createdAt,value
2022-10-05T00:02:49.281Z,0
2022-10-05T00:04:51.139Z,0
2022-10-05T00:06:52.322Z,0
2022-10-05T00:08:54.235Z,0
2022-10-05T00:10:55.700Z,0
2022-10-05T00:12:57.123Z,0
2022-10-05T00:14:59.093Z,0
2022-10-05T00:17:00.130Z,0
2022-10-05T00:19:01.518Z,0
2022-10-05T00:21:02.785Z,0.14
2022-10-05T00:23:04.106Z,0
2022-10-05T00:25:05.666Z,0
2022-10-05T00:27:07.502Z,0
2022-10-05T00:29:09.323Z,0
2022-10-05T00:31:10.747Z,0.14
2022-10-05T00:35:13.890Z,0
2022-10-05T00:37:15.778Z,0
2022-10-05T00:39:17.735Z,0
2022-10-05T00:41:19.058Z,0
2022-10-05T00:45:22.674Z,0
2022-10-05T00:47:24.578Z,0
2022-10-05T00:49:25.736Z,0
2022-10-05T00:51:27.172Z,0
2022-10-05T00:53:28.806Z,0
2022-10-05T00:55:30.466Z,0
2022-10-05T00:57:32.145Z,0
2022-10-05T00:59:33.531Z,0
2022-10-05T01:01:35.117Z,0
2022-10-05T01:03:36.413Z,0
2022-10-05T01:05:38.161Z,0
2022-10-05T01:07:39.568Z,0
2022-10-05T01:09:41.431Z,0
2022-10-05T01:11:43.302Z,0
2022-10-05T01:13:45.153Z,0
2022-10-05T01:17:47.978Z,0
2022-10-05T01:19:49.458Z,0
2022-10-05T01:21:50.422Z,0
2022-10-05T01:23:51.705Z,0
2022-10-05T01:27:54.627Z,0
2022-10-05T01:29:55.791Z,0
2022-10-05T01:31:57.335Z,0
2022-10-05T01:33:58.799Z,0
2022-10-05T01:36:00.114Z,0
2022-10-05T01:38:01.779Z,0
2022-10-05T01:40:03.211Z,0
2022-10-05T01:42:04.756Z,0
2022-10-05T01:44:06.243Z,0
2022-10-05T01:46:08.005Z,0
2022-10-05T01:48:09.735Z,0
2022-10-05T01:50:11.516Z,0
2022-10-05T01:52:13.060Z,0
2022-10-05T01:54:14.523Z,0
2022-10-05T01:56:15.764Z,0
2022-10-05T02:00:18.855Z,0
2022-10-05T02:02:20.499Z,0
2022-10-05T02:04:43.530Z,0
2022-10-05T02:06:23.434Z,0
2022-10-05T02:08:25.193Z,0
2022-10-05T02:10:26.440Z,0
2022-10-05T02:12:28.068Z,0
2022-10-05T02:14:29.904Z,0
2022-10-05T02:16:31.303Z,0
2022-10-05T02:18:33.190Z,0
2022-10-05T02:19:17.093Z,0
2022-10-05T02:21:18.662Z,0
2022-10-05T02:23:20.249Z,0
2022-10-05T02:25:21.889Z,0
2022-10-05T02:27:23.014Z,0
2022-10-05T02:29:24.511Z,0
2022-10-05T02:31:25.974Z,0
2022-10-05T02:33:27.499Z,0
2022-10-05T02:35:29.331Z,0
2022-10-05T02:37:30.896Z,0
2022-10-05T02:39:32.851Z,0
2022-10-05T02:41:34.619Z,0
2022-10-05T02:43:36.412Z,0
2022-10-05T02:45:37.900Z,0
2022-10-05T02:47:38.956Z,0
2022-10-05T02:49:39.957Z,0
2022-10-05T02:51:41.329Z,0
2022-10-05T02:53:42.722Z,0
2022-10-05T02:55:44.509Z,0
2022-10-05T02:57:45.572Z,0
2022-10-05T02:59:47.556Z,0
2022-10-05T03:01:49.515Z,0
2022-10-05T03:03:50.949Z,0
2022-10-05T03:05:52.838Z,0
2022-10-05T03:07:54.832Z,0
2022-10-05T03:10:00.194Z,0
2022-10-05T03:11:57.236Z,0
2022-10-05T03:13:58.722Z,0
2022-10-05T03:16:00.133Z,0
2022-10-05T03:18:01.663Z,0
2022-10-05T03:20:02.805Z,0
2022-10-05T03:22:04.358Z,0
2022-10-05T03:24:05.702Z,0
2022-10-05T03:26:07.659Z,0
2022-10-05T03:28:09.297Z,0
2022-10-05T03:30:10.584Z,0
2022-10-05T03:32:11.783Z,0
2022-10-05T03:36:14.180Z,0
2022-10-05T03:38:15.565Z,0
2022-10-05T03:40:17.080Z,0
2022-10-05T03:42:18.584Z,0
2022-10-05T03:46:21.010Z,0
2022-10-05T03:48:22.330Z,0
2022-10-05T03:50:24.269Z,0
2022-10-05T03:52:26.087Z,0
2022-10-05T03:54:27.415Z,0
2022-10-05T03:56:28.524Z,0
2022-10-05T03:58:30.197Z,0
2022-10-05T04:00:32.064Z,0
2022-10-05T04:02:33.578Z,0
2022-10-05T04:04:34.884Z,0
2022-10-05T04:06:36.303Z,0
2022-10-05T04:08:37.488Z,0
2022-10-05T04:10:39.387Z,0
2022-10-05T04:12:40.533Z,0
2022-10-05T04:14:42.323Z,0
2022-10-05T04:16:43.913Z,0
2022-10-05T04:18:45.073Z,0
2022-10-05T04:20:46.146Z,0
2022-10-05T04:22:47.839Z,0
2022-10-05T04:24:49.420Z,0
2022-10-05T04:28:51.905Z,0
2022-10-05T04:30:53.464Z,0
2022-10-05T04:32:55.355Z,0
2022-10-05T04:34:56.533Z,0
2022-10-05T04:36:57.919Z,0
2022-10-05T04:38:58.966Z,0
2022-10-05T04:41:00.061Z,0
2022-10-05T04:43:01.224Z,0
2022-10-05T04:45:02.780Z,0
2022-10-05T04:47:04.455Z,0
2022-10-05T04:49:06.320Z,0
2022-10-05T04:51:07.450Z,0
2022-10-05T04:53:09.247Z,0
2022-10-05T04:55:11.164Z,0
2022-10-05T04:57:12.475Z,0
2022-10-05T05:01:15.264Z,0
2022-10-05T05:03:16.423Z,0
2022-10-05T05:05:17.689Z,0
2022-10-05T05:07:19.243Z,0
2022-10-05T05:09:20.460Z,0
2022-10-05T05:11:24.506Z,0
2022-10-05T05:13:22.594Z,0
2022-10-05T05:15:23.850Z,0
2022-10-05T05:17:25.162Z,0
2022-10-05T05:19:26.237Z,0
2022-10-05T05:21:27.322Z,0
2022-10-05T05:23:28.665Z,0
2022-10-05T05:25:29.822Z,0
2022-10-05T05:27:31.171Z,0
2022-10-05T05:29:32.792Z,0
2022-10-05T05:31:34.681Z,0
2022-10-05T05:33:35.969Z,0
2022-10-05T05:35:37.830Z,0
2022-10-05T05:37:39.745Z,0
2022-10-05T05:39:41.587Z,0
2022-10-05T05:41:42.942Z,0
2022-10-05T05:43:44.176Z,0
2022-10-05T05:45:45.650Z,0
2022-10-05T05:47:46.758Z,0
2022-10-05T05:49:48.491Z,0
2022-10-05T05:51:50.317Z,0
2022-10-05T05:53:51.940Z,0
2022-10-05T05:55:53.806Z,0
2022-10-05T05:57:55.750Z,0
2022-10-05T05:59:57.745Z,0
2022-10-05T06:01:59.756Z,0
2022-10-05T06:04:01.614Z,0
2022-10-05T06:06:03.593Z,0
2022-10-05T06:08:04.968Z,0
2022-10-05T06:10:06.890Z,0
2022-10-05T06:12:08.422Z,0
2022-10-05T06:14:10.171Z,0
2022-10-05T06:16:11.414Z,0
2022-10-05T06:18:13.016Z,0
2022-10-05T06:20:14.376Z,0
2022-10-05T06:22:15.740Z,0
2022-10-05T06:24:17.001Z,0
2022-10-05T06:26:18.768Z,0
2022-10-05T06:28:20.110Z,0
2022-10-05T06:30:21.919Z,0
2022-10-05T06:32:23.003Z,0
2022-10-05T06:34:24.873Z,0
2022-10-05T06:36:26.528Z,0
2022-10-05T06:38:27.494Z,0
2022-10-05T06:40:29.125Z,0
2022-10-05T06:42:31.045Z,0
2022-10-05T06:44:32.294Z,0
2022-10-05T06:46:33.778Z,0
2022-10-05T06:48:35.718Z,0
2022-10-05T06:50:37.526Z,0
2022-10-05T06:54:40.454Z,0
2022-10-05T06:56:41.892Z,0
2022-10-05T06:58:42.972Z,0
2022-10-05T07:00:44.641Z,0
2022-10-05T07:02:46.499Z,0
2022-10-05T07:04:47.974Z,0
2022-10-05T07:06:49.705Z,0
2022-10-05T07:08:50.710Z,0
2022-10-05T07:10:51.650Z,0
2022-10-05T07:12:52.592Z,0
2022-10-05T07:14:54.840Z,0
2022-10-05T07:16:55.884Z,0
2022-10-05T07:18:57.304Z,0
2022-10-05T07:20:58.550Z,0
2022-10-05T07:23:00.318Z,0
2022-10-05T07:25:01.715Z,0
2022-10-05T07:27:03.474Z,0
2022-10-05T07:29:05.528Z,0
2022-10-05T07:31:06.978Z,0
2022-10-05T07:33:08.910Z,0
2022-10-05T07:35:10.400Z,0
2022-10-05T07:37:12.193Z,0
2022-10-05T07:39:13.587Z,0
2022-10-05T07:41:15.177Z,0
2022-10-05T07:43:16.182Z,0
2022-10-05T07:47:19.710Z,0
2022-10-05T07:49:21.456Z,0
2022-10-05T07:51:24.156Z,0
2022-10-05T07:53:25.492Z,0
2022-10-05T07:55:26.827Z,0.14
2022-10-05T07:57:28.617Z,0
2022-10-05T07:59:29.598Z,0
2022-10-05T08:01:30.832Z,0
2022-10-05T08:03:31.780Z,0
2022-10-05T08:05:33.207Z,0.28
2022-10-05T08:07:34.172Z,0
2022-10-05T08:09:35.877Z,0
2022-10-05T08:11:36.887Z,0
2022-10-05T08:13:38.112Z,0
2022-10-05T08:15:39.240Z,0
2022-10-05T08:17:40.191Z,0
2022-10-05T08:19:41.624Z,0
2022-10-05T08:21:42.538Z,0
2022-10-05T08:23:44.287Z,0.14
2022-10-05T08:25:45.932Z,0
2022-10-05T08:27:47.316Z,0
2022-10-05T08:29:48.285Z,0.28
2022-10-05T08:31:50.109Z,0
2022-10-05T08:33:50.906Z,0.561
2022-10-05T08:37:54.231Z,0
2022-10-05T08:39:55.406Z,0
2022-10-05T08:41:57.037Z,0
2022-10-05T08:43:58.508Z,0
2022-10-05T08:45:59.561Z,0.14
2022-10-05T08:48:00.623Z,0
2022-10-05T08:50:01.916Z,0.702
2022-10-05T08:52:03.199Z,0
2022-10-05T08:54:04.256Z,0
2022-10-05T08:56:06.027Z,2.527
2022-10-05T08:58:07.507Z,0.561
2022-10-05T09:00:08.645Z,2.808
2022-10-05T09:02:11.059Z,3.931
2022-10-05T09:04:12.407Z,2.246
2022-10-05T09:05:22.311Z,0.842
2022-10-05T09:07:23.727Z,3.51
2022-10-05T09:09:25.001Z,1.544
2022-10-05T09:11:25.892Z,0.28
2022-10-05T09:13:26.864Z,3.369
2022-10-05T09:15:27.707Z,2.527
2022-10-05T09:17:28.910Z,1.965
2022-10-05T09:19:29.857Z,3.79
2022-10-05T09:21:31.310Z,4.914
2022-10-05T09:23:32.919Z,3.51
2022-10-05T09:25:34.025Z,1.404
2022-10-05T09:27:35.275Z,2.527
2022-10-05T09:29:36.471Z,2.808
2022-10-05T09:31:38.055Z,0.982
2022-10-05T09:33:39.678Z,4.492
2022-10-05T09:35:40.841Z,4.492
2022-10-05T09:37:41.717Z,4.492
2022-10-05T09:39:42.730Z,7.16
2022-10-05T09:41:44.695Z,5.054
2022-10-05T09:43:45.751Z,5.756
2022-10-05T09:45:46.935Z,2.667
2022-10-05T09:47:48.714Z,8.424
2022-10-05T09:51:52.056Z,2.386
2022-10-05T09:53:53.012Z,2.386
2022-10-05T09:55:54.357Z,4.071
2022-10-05T09:57:55.380Z,2.106
2022-10-05T09:59:57.175Z,3.931
2022-10-05T10:01:58.630Z,4.914
2022-10-05T10:04:00.225Z,4.492
2022-10-05T10:06:01.373Z,1.404
2022-10-05T10:08:02.363Z,3.931
2022-10-05T10:10:03.589Z,4.071
2022-10-05T10:12:05.113Z,4.071
2022-10-05T10:14:05.925Z,7.3
2022-10-05T10:16:07.106Z,5.475
2022-10-05T10:18:08.273Z,4.212
2022-10-05T10:20:09.715Z,10.53
2022-10-05T10:24:12.726Z,4.633
2022-10-05T10:26:14.211Z,7.3
2022-10-05T10:28:15.452Z,7.862
2022-10-05T10:30:16.803Z,6.318
2022-10-05T10:34:19.218Z,5.475
2022-10-05T10:36:20.251Z,7.16
2022-10-05T10:38:21.986Z,7.441
2022-10-05T10:40:23.013Z,4.071
2022-10-05T10:42:25.355Z,5.335
2022-10-05T10:44:26.166Z,2.386
2022-10-05T10:46:27.350Z,6.318
2022-10-05T10:48:28.184Z,6.037
2022-10-05T10:50:29.068Z,3.229
2022-10-05T10:52:30.215Z,5.616
2022-10-05T10:54:32.019Z,3.65
2022-10-05T10:56:33.425Z,7.722
2022-10-05T10:58:35.078Z,2.106
2022-10-05T11:00:35.913Z,2.667
2022-10-05T11:02:37.055Z,3.229
2022-10-05T11:04:38.592Z,2.948
2022-10-05T11:06:39.836Z,4.773
2022-10-05T11:08:49.382Z,9.406
2022-10-05T11:10:42.309Z,3.79
2022-10-05T11:12:43.177Z,8.143
2022-10-05T11:14:44.021Z,5.194
2022-10-05T11:16:45.906Z,6.458
2022-10-05T11:18:47.510Z,2.246
2022-10-05T11:22:49.812Z,5.756
2022-10-05T11:24:51.115Z,4.071
2022-10-05T11:26:52.443Z,6.037
2022-10-05T11:28:54.260Z,6.177
2022-10-05T11:30:55.696Z,4.352
2022-10-05T11:32:57.428Z,5.194
2022-10-05T11:34:58.361Z,8.704
2022-10-05T11:36:59.262Z,2.948
2022-10-05T11:39:00.228Z,2.106
2022-10-05T11:41:01.356Z,1.123
2022-10-05T11:43:02.750Z,3.931
2022-10-05T11:45:04.063Z,11.653
2022-10-05T11:47:05.839Z,5.756
2022-10-05T11:49:07.184Z,7.581
2022-10-05T11:51:08.974Z,8.002
2022-10-05T11:53:10.248Z,4.914
2022-10-05T11:55:12.127Z,4.633
2022-10-05T11:57:12.897Z,6.037
2022-10-05T11:59:13.823Z,4.212
2022-10-05T12:01:15.143Z,6.598
2022-10-05T12:05:17.896Z,2.667
2022-10-05T12:07:19.145Z,8.704
2022-10-05T12:09:20.878Z,7.16
2022-10-05T12:11:21.907Z,4.914
2022-10-05T12:15:24.594Z,5.475
2022-10-05T12:17:25.540Z,3.229
2022-10-05T12:19:26.448Z,3.65
2022-10-05T12:21:27.515Z,4.492
2022-10-05T12:23:28.921Z,3.51
2022-10-05T12:25:30.230Z,3.65
2022-10-05T12:27:31.320Z,6.458
2022-10-05T12:29:32.752Z,3.088
2022-10-05T12:31:33.647Z,6.598
2022-10-05T12:33:34.958Z,4.914
2022-10-05T12:35:47.720Z,8.002
2022-10-05T12:37:38.135Z,3.51
2022-10-05T12:39:40.502Z,1.404
2022-10-05T12:41:41.577Z,4.492
2022-10-05T12:43:42.805Z,5.194
2022-10-05T12:45:44.940Z,3.931
2022-10-05T12:47:49.257Z,4.212
2022-10-05T12:49:47.455Z,8.845
2022-10-05T12:51:48.453Z,5.896
2022-10-05T12:53:50.119Z,7.02
2022-10-05T12:55:51.358Z,9.266
2022-10-05T12:57:52.707Z,9.547
2022-10-05T12:59:53.739Z,7.3
2022-10-05T13:01:54.930Z,6.318
2022-10-05T13:03:55.993Z,4.492
2022-10-05T13:06:00.288Z,4.633
2022-10-05T13:07:58.666Z,5.475
2022-10-05T13:09:59.638Z,7.02
2022-10-05T13:12:01.353Z,5.194
2022-10-05T13:14:02.542Z,4.071
2022-10-05T13:16:04.141Z,6.318
2022-10-05T13:18:05.165Z,5.194
2022-10-05T13:20:06.940Z,4.633
2022-10-05T13:22:08.625Z,1.684
2022-10-05T13:24:10.178Z,3.229
2022-10-05T13:26:11.970Z,4.773
2022-10-05T13:28:13.287Z,4.352
2022-10-05T13:30:14.679Z,2.667
2022-10-05T13:32:15.807Z,4.071
2022-10-05T13:34:16.793Z,1.404
2022-10-05T13:36:17.892Z,3.51
2022-10-05T13:38:18.782Z,3.088
2022-10-05T13:40:19.826Z,2.386
2022-10-05T13:42:21.005Z,4.071
2022-10-05T13:46:23.262Z,5.335
2022-10-05T13:48:24.004Z,4.352
2022-10-05T13:50:27.435Z,4.352
2022-10-05T13:52:26.264Z,4.914
2022-10-05T13:56:27.945Z,3.65
2022-10-05T13:58:29.525Z,6.037
2022-10-05T14:00:31.126Z,4.352
2022-10-05T14:02:32.431Z,3.088
2022-10-05T14:04:33.329Z,4.773
2022-10-05T14:06:34.802Z,4.633
2022-10-05T14:08:36.061Z,5.194
2022-10-05T14:10:37.314Z,3.931
2022-10-05T14:12:38.202Z,1.404
2022-10-05T14:14:39.927Z,3.51
2022-10-05T14:16:41.323Z,2.808
2022-10-05T14:18:42.509Z,1.684
2022-10-05T14:20:43.574Z,2.386
2022-10-05T14:22:45.148Z,1.544
2022-10-05T14:24:45.947Z,1.544
2022-10-05T14:26:47.010Z,4.071
2022-10-05T14:28:48.559Z,0.14
2022-10-05T14:30:54.443Z,3.65
2022-10-05T14:32:51.542Z,2.246
2022-10-05T14:34:52.633Z,1.404
2022-10-05T14:36:54.095Z,4.914
2022-10-05T14:38:55.485Z,0.842
2022-10-05T14:40:57.215Z,1.544
2022-10-05T14:42:58.090Z,0.982
2022-10-05T14:44:59.691Z,3.369
2022-10-05T14:47:00.885Z,2.106
2022-10-05T14:49:01.954Z,2.246
2022-10-05T14:51:02.912Z,5.054
2022-10-05T14:53:04.326Z,3.51
2022-10-05T14:55:05.687Z,1.825
2022-10-05T14:57:07.044Z,0.561
2022-10-05T14:59:08.266Z,0.421
2022-10-05T15:01:09.053Z,5.335
2022-10-05T15:03:10.645Z,3.229
2022-10-05T15:05:11.586Z,3.931
2022-10-05T15:07:13.637Z,0.561
2022-10-05T15:09:17.514Z,1.123
2022-10-05T15:11:15.875Z,0.28
2022-10-05T15:13:17.136Z,3.369
2022-10-05T15:15:18.215Z,1.965
2022-10-05T15:17:19.700Z,4.212
2022-10-05T15:19:20.516Z,2.808
2022-10-05T15:21:22.181Z,5.054
2022-10-05T15:23:23.694Z,2.808
2022-10-05T15:27:26.357Z,1.965
2022-10-05T15:29:27.287Z,2.667
2022-10-05T15:31:29.014Z,0.561
2022-10-05T15:33:30.343Z,1.825
2022-10-05T15:37:32.306Z,0.561
2022-10-05T15:39:33.956Z,1.825
2022-10-05T15:41:35.605Z,3.79
2022-10-05T15:43:37.096Z,3.369
2022-10-05T15:45:38.538Z,0.14
2022-10-05T15:47:40.115Z,2.667
2022-10-05T15:49:41.744Z,3.931
2022-10-05T15:50:25.451Z,2.386
2022-10-05T15:52:26.480Z,0.14
2022-10-05T15:54:27.449Z,0
2022-10-05T15:56:29.077Z,1.404
2022-10-05T15:58:29.900Z,0.421
2022-10-05T16:00:31.710Z,0.842
2022-10-05T16:02:33.262Z,0.702
2022-10-05T16:04:34.044Z,0.982
2022-10-05T16:06:34.932Z,1.684
2022-10-05T16:08:35.929Z,3.51
2022-10-05T16:10:36.777Z,3.65
2022-10-05T16:12:38.198Z,3.229
2022-10-05T16:14:39.772Z,2.386
2022-10-05T16:16:41.376Z,4.352
2022-10-05T16:18:42.589Z,1.965
2022-10-05T16:20:43.998Z,0.14
2022-10-05T16:22:45.300Z,2.527
2022-10-05T16:24:46.988Z,2.106
2022-10-05T16:26:48.003Z,0
2022-10-05T16:28:49.693Z,0.982
2022-10-05T16:30:50.845Z,1.544
2022-10-05T16:32:51.992Z,0.982
2022-10-05T16:34:53.003Z,0.421
2022-10-05T16:36:54.097Z,0
2022-10-05T16:38:55.618Z,0
2022-10-05T16:41:01.099Z,0
2022-10-05T16:42:58.362Z,0
2022-10-05T16:44:59.381Z,0
2022-10-05T16:47:00.352Z,0
2022-10-05T16:49:01.785Z,0
2022-10-05T16:51:03.325Z,0
2022-10-05T16:53:04.512Z,0
2022-10-05T16:55:05.948Z,0
2022-10-05T16:57:07.332Z,0.14
2022-10-05T16:59:13.876Z,0
2022-10-05T17:03:11.142Z,0
2022-10-05T17:05:12.325Z,0
2022-10-05T17:07:13.513Z,1.404
2022-10-05T17:09:14.777Z,0
2022-10-05T17:11:17.241Z,0
2022-10-05T17:13:17.457Z,0
2022-10-05T17:15:19.327Z,0.14
2022-10-05T17:17:21.131Z,0
2022-10-05T17:19:22.838Z,0
2022-10-05T17:21:24.542Z,1.965
2022-10-05T17:23:25.794Z,2.246
2022-10-05T17:25:27.418Z,0.14
2022-10-05T17:27:28.650Z,0
2022-10-05T17:29:30.184Z,0
2022-10-05T17:31:31.765Z,0
2022-10-05T17:33:32.839Z,1.965
2022-10-05T17:35:34.293Z,0
2022-10-05T17:37:35.386Z,1.263
2022-10-05T17:39:36.478Z,0
2022-10-05T17:41:38.021Z,0
2022-10-05T17:45:41.288Z,0.982
2022-10-05T17:47:46.765Z,0.14
2022-10-05T17:49:44.144Z,0
2022-10-05T17:51:45.841Z,0
2022-10-05T17:53:46.873Z,0
2022-10-05T17:55:48.529Z,0
2022-10-05T17:57:49.953Z,0.561
2022-10-05T17:59:51.737Z,1.404
2022-10-05T18:01:52.875Z,0.28
2022-10-05T18:03:54.438Z,0
2022-10-05T18:05:56.230Z,0
2022-10-05T18:07:57.495Z,0
2022-10-05T18:09:59.268Z,0
2022-10-05T18:12:00.689Z,0.28
2022-10-05T18:14:01.894Z,2.386
2022-10-05T18:16:02.877Z,0.982
2022-10-05T18:18:04.563Z,1.123
2022-10-05T18:20:05.884Z,0.561
2022-10-05T18:22:07.343Z,0
2022-10-05T18:24:08.251Z,0
2022-10-05T18:26:09.959Z,0.421
2022-10-05T18:28:11.501Z,0.561
2022-10-05T18:30:12.433Z,2.808
2022-10-05T18:32:13.915Z,0.842
2022-10-05T18:34:14.841Z,2.667
2022-10-05T18:36:16.053Z,0
2022-10-05T18:38:17.932Z,2.386
2022-10-05T18:40:19.702Z,0.982
2022-10-05T18:42:21.140Z,0.14
2022-10-05T18:44:22.452Z,0
2022-10-05T18:46:23.765Z,0.14
2022-10-05T18:48:25.490Z,0
2022-10-05T18:50:26.321Z,1.404
2022-10-05T18:52:27.761Z,0.421
2022-10-05T18:54:29.468Z,2.386
2022-10-05T18:56:30.695Z,0.982
2022-10-05T18:58:31.924Z,0.561
2022-10-05T19:00:33.226Z,0.561
2022-10-05T19:02:35.020Z,1.404
2022-10-05T19:04:36.384Z,1.965
2022-10-05T19:06:37.525Z,0.702
2022-10-05T19:08:39.417Z,1.263
2022-10-05T19:10:41.155Z,0.421
2022-10-05T19:12:42.182Z,0.702
2022-10-05T19:14:43.944Z,0
2022-10-05T19:16:45.772Z,0
2022-10-05T19:18:47.365Z,0
2022-10-05T19:20:48.978Z,0
2022-10-05T19:22:50.812Z,0
2022-10-05T19:26:53.607Z,0
2022-10-05T19:28:55.268Z,0
2022-10-05T19:30:56.899Z,0.28
2022-10-05T19:32:58.113Z,0.14
2022-10-05T19:37:00.833Z,1.544
2022-10-05T19:39:02.712Z,0
2022-10-05T19:41:04.365Z,0
2022-10-05T19:43:06.103Z,0
2022-10-05T19:45:07.529Z,0
2022-10-05T19:47:08.893Z,0
2022-10-05T19:49:10.283Z,0
2022-10-05T19:51:11.292Z,0
2022-10-05T19:53:12.514Z,0
2022-10-05T19:55:13.506Z,0
2022-10-05T19:59:16.098Z,0
2022-10-05T20:01:17.415Z,0
2022-10-05T20:03:19.022Z,0
2022-10-05T20:05:20.762Z,0
2022-10-05T20:09:24.418Z,3.79
2022-10-05T20:11:25.530Z,0
2022-10-05T20:13:27.195Z,0
2022-10-05T20:15:28.093Z,0
2022-10-05T20:19:31.578Z,0
2022-10-05T20:21:33.090Z,0
2022-10-05T20:23:34.881Z,0
2022-10-05T20:25:36.200Z,0
2022-10-05T20:27:38.023Z,0
2022-10-05T20:29:39.509Z,0
2022-10-05T20:31:40.648Z,0
2022-10-05T20:35:43.015Z,0
2022-10-05T20:37:44.730Z,0
2022-10-05T20:39:45.976Z,0
2022-10-05T20:41:47.494Z,0
2022-10-05T20:43:49.382Z,0
2022-10-05T20:47:52.952Z,0
2022-10-05T20:49:53.987Z,0
2022-10-05T20:51:55.549Z,0
2022-10-05T20:53:57.007Z,0
2022-10-05T20:55:58.047Z,0
2022-10-05T20:57:59.521Z,0
2022-10-05T21:00:00.683Z,0
2022-10-05T21:02:01.959Z,0
2022-10-05T21:04:02.837Z,2.246
2022-10-05T21:06:04.584Z,0.14
2022-10-05T21:08:06.430Z,0.561
2022-10-05T21:10:07.527Z,0
2022-10-05T21:12:09.284Z,0
2022-10-05T21:14:11.128Z,0.421
2022-10-05T21:16:12.793Z,0.982
2022-10-05T21:18:14.341Z,2.808
2022-10-05T21:20:16.100Z,1.825
2022-10-05T21:22:17.344Z,0.28
2022-10-05T21:24:18.465Z,0
2022-10-05T21:26:20.006Z,0
2022-10-05T21:28:21.321Z,0
2022-10-05T21:30:22.412Z,0
2022-10-05T21:32:24.164Z,0
2022-10-05T21:34:25.193Z,0
2022-10-05T21:36:26.329Z,0
2022-10-05T21:38:27.909Z,2.527
2022-10-05T21:40:29.286Z,0
2022-10-05T21:42:30.973Z,0
2022-10-05T21:44:32.303Z,0
2022-10-05T21:46:33.934Z,0
2022-10-05T21:50:36.821Z,0
2022-10-05T21:52:38.668Z,0
2022-10-05T21:54:40.324Z,0
2022-10-05T21:56:41.606Z,0
2022-10-05T22:00:44.394Z,0
2022-10-05T22:02:45.417Z,0
2022-10-05T22:04:46.643Z,0
2022-10-05T22:06:48.069Z,0
2022-10-05T22:08:49.688Z,0
2022-10-05T22:10:51.187Z,0
2022-10-05T22:12:52.625Z,0
2022-10-05T22:14:53.895Z,0
2022-10-05T22:16:55.343Z,0
2022-10-05T22:18:56.805Z,0
2022-10-05T22:20:58.634Z,0
2022-10-05T22:22:59.520Z,0
2022-10-05T22:25:00.407Z,0
2022-10-05T22:27:01.656Z,0.14
2022-10-05T22:29:03.106Z,0.702
2022-10-05T22:33:06.688Z,0
2022-10-05T22:35:11.286Z,0
2022-10-05T22:37:52.928Z,0
2022-10-05T22:39:53.900Z,1.825
2022-10-05T22:41:55.529Z,2.106
2022-10-05T22:43:57.242Z,2.246
2022-10-05T22:45:58.285Z,0.561
2022-10-05T22:47:59.956Z,2.667
2022-10-05T22:50:01.164Z,3.229
2022-10-05T22:52:02.103Z,0.702
2022-10-05T22:54:03.723Z,0
2022-10-05T22:56:04.954Z,0
2022-10-05T22:58:06.409Z,0
2022-10-05T23:00:07.502Z,0
2022-10-05T23:02:08.893Z,2.106
2022-10-05T23:04:10.268Z,0
2022-10-05T23:06:11.904Z,1.404
2022-10-05T23:08:13.540Z,0.421
2022-10-05T23:10:14.990Z,0
2022-10-05T23:12:16.609Z,0
2022-10-05T23:14:18.088Z,0
2022-10-05T23:16:19.420Z,0
2022-10-05T23:18:20.248Z,0
2022-10-05T23:20:21.781Z,0.842
2022-10-05T23:22:23.537Z,0
2022-10-05T23:24:24.794Z,0
2022-10-05T23:26:25.694Z,0
2022-10-05T23:28:27.841Z,0.28
2022-10-05T23:30:28.452Z,0
2022-10-05T23:32:29.679Z,1.123
2022-10-05T23:34:31.473Z,1.123
2022-10-05T23:36:33.299Z,0.702
2022-10-05T23:38:35.205Z,0.702
2022-10-05T23:40:36.439Z,0
2022-10-05T23:42:38.225Z,0
2022-10-05T23:44:39.344Z,0
2022-10-05T23:46:40.453Z,0.14
2022-10-05T23:48:42.190Z,0
2022-10-05T23:50:43.903Z,0
2022-10-05T23:52:45.137Z,0
2022-10-05T23:54:46.521Z,0
2022-10-05T23:56:47.884Z,0
2022-10-05T23:58:49.476Z,0
